sensor_id;sensor_type;location;lat;lon;timestamp;pressure;altitude;pressure_sealevel;temperature;humidity
43701;BME280;58809;47.984;7.964;2023-08-21T00:01:25;97755.84;;;20.34;100.00
43701;BME280;58809;47.984;7.964;2023-08-21T00:04:27;97761.44;;;20.32;100.00
43701;BME280;58809;47.984;7.964;2023-08-21T00:07:29;97758.97;;;20.31;100.00
43701;BME280;58809;47.984;7.964;2023-08-21T00:10:31;97752.66;;;20.25;100.00
43701;BME280;58809;47.984;7.964;2023-08-21T00:13:34;97748.78;;;20.21;100.00
43701;BME280;58809;47.984;7.964;2023-08-21T00:16:36;97745.53;;;20.19;100.00
43701;BME280;58809;47.984;7.964;2023-08-21T00:19:38;97748.66;;;20.16;100.00
43701;BME280;58809;47.984;7.964;2023-08-21T00:22:40;97755.09;;;20.15;100.00
43701;BME280;58809;47.984;7.964;2023-08-21T00:25:45;97750.97;;;20.12;100.00
43701;BME280;58809;47.984;7.964;2023-08-21T00:28:48;97746.06;;;20.09;100.00
43701;BME280;58809;47.984;7.964;2023-08-21T00:31:49;97746.41;;;20.01;100.00
43701;BME280;58809;47.984;7.964;2023-08-21T00:34:51;97746.84;;;19.98;100.00
43701;BME280;58809;47.984;7.964;2023-08-21T00:37:53;97750.81;;;19.95;100.00
43701;BME280;58809;47.984;7.964;2023-08-21T00:40:55;97746.72;;;19.93;100.00
43701;BME280;58809;47.984;7.964;2023-08-21T00:43:57;97748.78;;;19.91;100.00
43701;BME280;58809;47.984;7.964;2023-08-21T00:46:59;97747.19;;;19.90;100.00
43701;BME280;58809;47.984;7.964;2023-08-21T00:50:02;97750.66;;;19.90;100.00
43701;BME280;58809;47.984;7.964;2023-08-21T00:53:05;97750.91;;;19.89;100.00
43701;BME280;58809;47.984;7.964;2023-08-21T00:56:08;97740.84;;;19.84;100.00
43701;BME280;58809;47.984;7.964;2023-08-21T00:59:12;97742.69;;;19.84;100.00
43701;BME280;58809;47.984;7.964;2023-08-21T01:02:15;97747.72;;;19.80;100.00
43701;BME280;58809;47.984;7.964;2023-08-21T01:05:18;97749.19;;;19.76;100.00
43701;BME280;58809;47.984;7.964;2023-08-21T01:08:29;97743.44;;;19.72;100.00
43701;BME280;58809;47.984;7.964;2023-08-21T01:11:47;97746.81;;;19.68;100.00
43701;BME280;58809;47.984;7.964;2023-08-21T01:15:08;97752.78;;;19.70;100.00
43701;BME280;58809;47.984;7.964;2023-08-21T01:18:11;97751.97;;;19.69;100.00
43701;BME280;58809;47.984;7.964;2023-08-21T01:21:13;97749.94;;;19.65;100.00
43701;BME280;58809;47.984;7.964;2023-08-21T01:24:19;97754.72;;;19.62;100.00
43701;BME280;58809;47.984;7.964;2023-08-21T01:27:21;97753.75;;;19.57;100.00
43701;BME280;58809;47.984;7.964;2023-08-21T01:30:23;97754.78;;;19.56;100.00
43701;BME280;58809;47.984;7.964;2023-08-21T01:33:26;97747.56;;;19.56;100.00
43701;BME280;58809;47.984;7.964;2023-08-21T01:36:31;97748.38;;;19.57;100.00
43701;BME280;58809;47.984;7.964;2023-08-21T01:39:33;97747.22;;;19.53;100.00
43701;BME280;58809;47.984;7.964;2023-08-21T01:42:34;97746.38;;;19.52;100.00
43701;BME280;58809;47.984;7.964;2023-08-21T01:45:37;97743.31;;;19.49;100.00
43701;BME280;58809;47.984;7.964;2023-08-21T01:48:39;97745.63;;;19.45;100.00
43701;BME280;58809;47.984;7.964;2023-08-21T01:51:41;97743.78;;;19.46;100.00
43701;BME280;58809;47.984;7.964;2023-08-21T01:54:42;97745.25;;;19.41;100.00
43701;BME280;58809;47.984;7.964;2023-08-21T01:57:44;97742.06;;;19.33;100.00
43701;BME280;58809;47.984;7.964;2023-08-21T02:00:47;97731.78;;;19.30;100.00
43701;BME280;58809;47.984;7.964;2023-08-21T02:03:48;97728.72;;;19.26;100.00
43701;BME280;58809;47.984;7.964;2023-08-21T02:06:50;97737.22;;;19.23;100.00
43701;BME280;58809;47.984;7.964;2023-08-21T02:09:52;97735.59;;;19.22;100.00
43701;BME280;58809;47.984;7.964;2023-08-21T02:12:54;97737.09;;;19.18;100.00
43701;BME280;58809;47.984;7.964;2023-08-21T02:15:56;97722.22;;;19.15;100.00
43701;BME280;58809;47.984;7.964;2023-08-21T02:18:58;97724.53;;;19.12;100.00
43701;BME280;58809;47.984;7.964;2023-08-21T02:22:00;97721.94;;;19.05;100.00
43701;BME280;58809;47.984;7.964;2023-08-21T02:25:02;97723.19;;;19.02;100.00
43701;BME280;58809;47.984;7.964;2023-08-21T02:28:04;97727.16;;;19.00;100.00
43701;BME280;58809;47.984;7.964;2023-08-21T02:31:09;97716.06;;;18.96;100.00
43701;BME280;58809;47.984;7.964;2023-08-21T02:34:11;97725.13;;;18.95;100.00
43701;BME280;58809;47.984;7.964;2023-08-21T02:37:13;97724.31;;;18.95;100.00
43701;BME280;58809;47.984;7.964;2023-08-21T02:40:15;97723.94;;;18.91;100.00
43701;BME280;58809;47.984;7.964;2023-08-21T02:43:17;97726.84;;;18.90;100.00
43701;BME280;58809;47.984;7.964;2023-08-21T02:46:19;97724.38;;;18.88;100.00
43701;BME280;58809;47.984;7.964;2023-08-21T02:49:21;97722.97;;;18.85;100.00
43701;BME280;58809;47.984;7.964;2023-08-21T02:52:23;97714.31;;;18.83;100.00
43701;BME280;58809;47.984;7.964;2023-08-21T02:55:25;97719.50;;;18.78;100.00
43701;BME280;58809;47.984;7.964;2023-08-21T02:58:27;97719.72;;;18.77;100.00
43701;BME280;58809;47.984;7.964;2023-08-21T03:01:30;97723.88;;;18.73;100.00
43701;BME280;58809;47.984;7.964;2023-08-21T03:04:32;97728.44;;;18.72;100.00
43701;BME280;58809;47.984;7.964;2023-08-21T03:07:34;97739.78;;;18.67;100.00
43701;BME280;58809;47.984;7.964;2023-08-21T03:10:36;97734.44;;;18.67;100.00
43701;BME280;58809;47.984;7.964;2023-08-21T03:13:38;97735.72;;;18.65;100.00
43701;BME280;58809;47.984;7.964;2023-08-21T03:16:41;97746.44;;;18.65;100.00
43701;BME280;58809;47.984;7.964;2023-08-21T03:19:43;97742.91;;;18.64;100.00
43701;BME280;58809;47.984;7.964;2023-08-21T03:22:44;97751.41;;;18.61;100.00
43701;BME280;58809;47.984;7.964;2023-08-21T03:25:47;97751.84;;;18.58;100.00
43701;BME280;58809;47.984;7.964;2023-08-21T03:28:49;97753.53;;;18.53;100.00
43701;BME280;58809;47.984;7.964;2023-08-21T03:31:53;97759.09;;;18.51;100.00
43701;BME280;58809;47.984;7.964;2023-08-21T03:34:56;97759.31;;;18.50;100.00
43701;BME280;58809;47.984;7.964;2023-08-21T03:37:58;97765.34;;;18.45;100.00
43701;BME280;58809;47.984;7.964;2023-08-21T03:41:03;97765.78;;;18.42;100.00
43701;BME280;58809;47.984;7.964;2023-08-21T03:44:08;97766.19;;;18.39;100.00
43701;BME280;58809;47.984;7.964;2023-08-21T03:47:12;97769.34;;;18.36;100.00
43701;BME280;58809;47.984;7.964;2023-08-21T03:50:26;97773.50;;;18.32;100.00
43701;BME280;58809;47.984;7.964;2023-08-21T03:53:29;97767.75;;;18.28;100.00
43701;BME280;58809;47.984;7.964;2023-08-21T03:56:31;97775.38;;;18.24;100.00
43701;BME280;58809;47.984;7.964;2023-08-21T03:59:32;97775.00;;;18.21;100.00
43701;BME280;58809;47.984;7.964;2023-08-21T04:02:35;97784.88;;;18.20;100.00
43701;BME280;58809;47.984;7.964;2023-08-21T04:05:37;97776.63;;;18.22;100.00
43701;BME280;58809;47.984;7.964;2023-08-21T04:08:39;97783.44;;;18.24;100.00
43701;BME280;58809;47.984;7.964;2023-08-21T04:11:41;97786.09;;;18.24;100.00
43701;BME280;58809;47.984;7.964;2023-08-21T04:14:43;97787.34;;;18.22;100.00
43701;BME280;58809;47.984;7.964;2023-08-21T04:17:45;97786.31;;;18.23;100.00
43701;BME280;58809;47.984;7.964;2023-08-21T04:20:48;97784.25;;;18.18;100.00
43701;BME280;58809;47.984;7.964;2023-08-21T04:23:50;97788.22;;;18.16;100.00
43701;BME280;58809;47.984;7.964;2023-08-21T04:26:52;97791.69;;;18.16;100.00
43701;BME280;58809;47.984;7.964;2023-08-21T04:29:54;97786.13;;;18.18;100.00
43701;BME280;58809;47.984;7.964;2023-08-21T04:32:56;97787.53;;;18.20;100.00
43701;BME280;58809;47.984;7.964;2023-08-21T04:35:58;97787.78;;;18.19;100.00
43701;BME280;58809;47.984;7.964;2023-08-21T04:39:00;97791.28;;;18.19;100.00
43701;BME280;58809;47.984;7.964;2023-08-21T04:42:02;97794.56;;;18.21;100.00
43701;BME280;58809;47.984;7.964;2023-08-21T04:45:05;97790.00;;;18.22;100.00
43701;BME280;58809;47.984;7.964;2023-08-21T04:48:09;97805.28;;;18.21;100.00
43701;BME280;58809;47.984;7.964;2023-08-21T04:51:11;97803.19;;;18.23;100.00
43701;BME280;58809;47.984;7.964;2023-08-21T04:54:13;97802.78;;;18.26;100.00
43701;BME280;58809;47.984;7.964;2023-08-21T04:57:15;97810.38;;;18.30;100.00
43701;BME280;58809;47.984;7.964;2023-08-21T05:00:17;97800.88;;;18.34;100.00
43701;BME280;58809;47.984;7.964;2023-08-21T05:03:19;97808.03;;;18.40;100.00
43701;BME280;58809;47.984;7.964;2023-08-21T05:06:21;97818.72;;;18.46;100.00
43701;BME280;58809;47.984;7.964;2023-08-21T05:09:23;97821.94;;;18.55;100.00
43701;BME280;58809;47.984;7.964;2023-08-21T05:12:25;97819.00;;;18.63;100.00
43701;BME280;58809;47.984;7.964;2023-08-21T05:15:27;97820.97;;;18.81;100.00
43701;BME280;58809;47.984;7.964;2023-08-21T05:18:29;97819.31;;;19.06;100.00
43701;BME280;58809;47.984;7.964;2023-08-21T05:21:31;97827.09;;;19.32;100.00
43701;BME280;58809;47.984;7.964;2023-08-21T05:24:32;97830.09;;;19.61;100.00
43701;BME280;58809;47.984;7.964;2023-08-21T05:27:38;97831.75;;;19.99;100.00
43701;BME280;58809;47.984;7.964;2023-08-21T05:30:39;97831.75;;;20.29;100.00
43701;BME280;58809;47.984;7.964;2023-08-21T05:33:41;97835.06;;;20.62;100.00
43701;BME280;58809;47.984;7.964;2023-08-21T05:36:43;97830.78;;;20.96;100.00
43701;BME280;58809;47.984;7.964;2023-08-21T05:39:44;97832.06;;;21.17;100.00
43701;BME280;58809;47.984;7.964;2023-08-21T05:42:47;97830.34;;;21.34;100.00
43701;BME280;58809;47.984;7.964;2023-08-21T05:45:49;97823.53;;;21.56;100.00
43701;BME280;58809;47.984;7.964;2023-08-21T05:48:50;97826.56;;;21.71;100.00
43701;BME280;58809;47.984;7.964;2023-08-21T05:51:52;97823.84;;;21.83;100.00
43701;BME280;58809;47.984;7.964;2023-08-21T05:54:55;97825.66;;;22.06;100.00
43701;BME280;58809;47.984;7.964;2023-08-21T05:57:56;97829.56;;;22.27;100.00
43701;BME280;58809;47.984;7.964;2023-08-21T06:00:58;97828.41;;;22.52;100.00
43701;BME280;58809;47.984;7.964;2023-08-21T06:04:00;97832.44;;;22.83;100.00
43701;BME280;58809;47.984;7.964;2023-08-21T06:07:37;97832.13;;;23.13;100.00
43701;BME280;58809;47.984;7.964;2023-08-21T06:10:39;97832.06;;;23.25;100.00
43701;BME280;58809;47.984;7.964;2023-08-21T06:13:41;97833.72;;;23.48;100.00
43701;BME280;58809;47.984;7.964;2023-08-21T06:16:44;97841.25;;;23.63;100.00
43701;BME280;58809;47.984;7.964;2023-08-21T06:19:46;97837.94;;;23.61;100.00
43701;BME280;58809;47.984;7.964;2023-08-21T06:22:48;97844.81;;;23.69;100.00
43701;BME280;58809;47.984;7.964;2023-08-21T06:25:50;97836.75;;;23.91;100.00
43701;BME280;58809;47.984;7.964;2023-08-21T06:28:54;97845.53;;;24.03;100.00
43701;BME280;58809;47.984;7.964;2023-08-21T06:31:56;97844.22;;;24.06;100.00
43701;BME280;58809;47.984;7.964;2023-08-21T06:34:58;97845.09;;;24.11;100.00
43701;BME280;58809;47.984;7.964;2023-08-21T06:38:00;97849.22;;;24.19;100.00
43701;BME280;58809;47.984;7.964;2023-08-21T06:41:02;97842.56;;;24.27;100.00
43701;BME280;58809;47.984;7.964;2023-08-21T06:44:09;97851.53;;;24.54;100.00
43701;BME280;58809;47.984;7.964;2023-08-21T06:47:11;97850.00;;;24.96;99.96
43701;BME280;58809;47.984;7.964;2023-08-21T06:50:12;97847.44;;;25.16;96.29
43701;BME280;58809;47.984;7.964;2023-08-21T06:53:14;97846.44;;;25.23;96.64
43701;BME280;58809;47.984;7.964;2023-08-21T06:56:16;97846.03;;;25.41;96.07
43701;BME280;58809;47.984;7.964;2023-08-21T06:59:17;97842.38;;;25.63;93.35
43701;BME280;58809;47.984;7.964;2023-08-21T07:02:19;97847.88;;;25.83;90.02
43701;BME280;58809;47.984;7.964;2023-08-21T07:05:21;97854.50;;;25.98;87.54
43701;BME280;58809;47.984;7.964;2023-08-21T07:08:23;97848.81;;;26.09;85.86
43701;BME280;58809;47.984;7.964;2023-08-21T07:11:25;97847.00;;;26.25;82.46
43701;BME280;58809;47.984;7.964;2023-08-21T07:14:27;97850.81;;;26.35;82.09
43701;BME280;58809;47.984;7.964;2023-08-21T07:17:28;97845.94;;;26.37;82.75
43701;BME280;58809;47.984;7.964;2023-08-21T07:20:30;97842.69;;;26.45;81.51
43701;BME280;58809;47.984;7.964;2023-08-21T07:23:32;97839.72;;;26.51;80.34
43701;BME280;58809;47.984;7.964;2023-08-21T07:26:34;97846.81;;;26.63;80.32
43701;BME280;58809;47.984;7.964;2023-08-21T07:29:36;97848.19;;;26.81;79.92
43701;BME280;58809;47.984;7.964;2023-08-21T07:32:37;97843.84;;;26.95;78.20
43701;BME280;58809;47.984;7.964;2023-08-21T07:35:39;97846.84;;;26.88;77.94
43701;BME280;58809;47.984;7.964;2023-08-21T07:38:41;97847.38;;;26.91;78.17
43701;BME280;58809;47.984;7.964;2023-08-21T07:41:42;97853.63;;;27.01;78.12
43701;BME280;58809;47.984;7.964;2023-08-21T07:44:44;97849.84;;;27.02;76.20
43701;BME280;58809;47.984;7.964;2023-08-21T07:47:47;97857.97;;;26.97;76.86
43701;BME280;58809;47.984;7.964;2023-08-21T07:51:01;97855.28;;;27.07;76.42
43701;BME280;58809;47.984;7.964;2023-08-21T07:54:03;97860.44;;;27.09;75.58
43701;BME280;58809;47.984;7.964;2023-08-21T07:57:06;97859.59;;;27.08;75.93
43701;BME280;58809;47.984;7.964;2023-08-21T08:00:08;97857.41;;;27.11;75.11
43701;BME280;58809;47.984;7.964;2023-08-21T08:03:13;97854.44;;;26.92;76.75
43701;BME280;58809;47.984;7.964;2023-08-21T08:06:16;97852.28;;;27.04;76.59
43701;BME280;58809;47.984;7.964;2023-08-21T08:09:17;97853.63;;;27.06;76.49
43701;BME280;58809;47.984;7.964;2023-08-21T08:12:20;97853.06;;;27.25;76.10
43701;BME280;58809;47.984;7.964;2023-08-21T08:15:22;97856.88;;;27.44;74.74
43701;BME280;58809;47.984;7.964;2023-08-21T08:18:24;97862.28;;;27.55;74.24
43701;BME280;58809;47.984;7.964;2023-08-21T08:21:26;97858.75;;;27.54;74.45
43701;BME280;58809;47.984;7.964;2023-08-21T08:24:27;97858.47;;;27.66;74.16
43701;BME280;58809;47.984;7.964;2023-08-21T08:27:29;97862.84;;;27.52;73.90
43701;BME280;58809;47.984;7.964;2023-08-21T08:30:30;97860.94;;;27.52;74.58
43701;BME280;58809;47.984;7.964;2023-08-21T08:33:32;97847.88;;;27.64;74.24
43701;BME280;58809;47.984;7.964;2023-08-21T08:36:35;97854.84;;;27.91;73.65
43701;BME280;58809;47.984;7.964;2023-08-21T08:39:36;97851.47;;;28.20;72.02
43701;BME280;58809;47.984;7.964;2023-08-21T08:42:39;97855.50;;;28.28;72.49
43701;BME280;58809;47.984;7.964;2023-08-21T08:45:41;97863.63;;;28.38;71.35
43701;BME280;58809;47.984;7.964;2023-08-21T08:48:43;97848.88;;;28.54;70.84
43701;BME280;58809;47.984;7.964;2023-08-21T08:51:46;97850.13;;;28.72;69.42
43701;BME280;58809;47.984;7.964;2023-08-21T08:54:50;97850.44;;;28.60;69.68
43701;BME280;58809;47.984;7.964;2023-08-21T08:57:55;97846.78;;;28.80;69.31
43701;BME280;58809;47.984;7.964;2023-08-21T09:00:57;97843.47;;;28.89;67.86
43701;BME280;58809;47.984;7.964;2023-08-21T09:03:58;97858.25;;;29.07;67.00
43701;BME280;58809;47.984;7.964;2023-08-21T09:07:10;97842.34;;;29.24;65.42
43701;BME280;58809;47.984;7.964;2023-08-21T09:10:14;97850.34;;;29.10;65.77
43701;BME280;58809;47.984;7.964;2023-08-21T09:13:18;97841.91;;;29.07;66.34
43701;BME280;58809;47.984;7.964;2023-08-21T09:16:22;97837.47;;;29.21;65.69
43701;BME280;58809;47.984;7.964;2023-08-21T09:19:24;97843.31;;;29.39;65.00
43701;BME280;58809;47.984;7.964;2023-08-21T09:22:26;97835.75;;;29.30;65.35
43701;BME280;58809;47.984;7.964;2023-08-21T09:25:27;97832.59;;;29.47;65.13
43701;BME280;58809;47.984;7.964;2023-08-21T09:28:31;97841.91;;;29.41;64.52
43701;BME280;58809;47.984;7.964;2023-08-21T09:31:33;97835.09;;;29.44;64.14
43701;BME280;58809;47.984;7.964;2023-08-21T09:34:36;97842.16;;;29.69;63.81
43701;BME280;58809;47.984;7.964;2023-08-21T09:37:38;97835.03;;;29.73;63.83
43701;BME280;58809;47.984;7.964;2023-08-21T09:40:41;97829.28;;;29.50;64.25
43701;BME280;58809;47.984;7.964;2023-08-21T09:43:43;97836.28;;;29.86;63.93
43701;BME280;58809;47.984;7.964;2023-08-21T09:46:48;97829.19;;;30.28;62.25
43701;BME280;58809;47.984;7.964;2023-08-21T09:49:50;97820.38;;;30.31;61.03
43701;BME280;58809;47.984;7.964;2023-08-21T09:52:53;97832.09;;;29.93;61.39
43701;BME280;58809;47.984;7.964;2023-08-21T09:55:55;97828.63;;;29.88;60.76
43701;BME280;58809;47.984;7.964;2023-08-21T09:58:57;97818.00;;;29.86;60.69
43701;BME280;58809;47.984;7.964;2023-08-21T10:02:00;97812.66;;;30.19;60.46
43701;BME280;58809;47.984;7.964;2023-08-21T10:05:02;97812.94;;;30.18;60.20
43701;BME280;58809;47.984;7.964;2023-08-21T10:08:06;97811.09;;;30.32;60.14
43701;BME280;58809;47.984;7.964;2023-08-21T10:11:08;97808.38;;;30.32;59.19
43701;BME280;58809;47.984;7.964;2023-08-21T10:14:11;97805.50;;;30.42;59.30
43701;BME280;58809;47.984;7.964;2023-08-21T10:17:13;97806.81;;;30.83;59.22
43701;BME280;58809;47.984;7.964;2023-08-21T10:20:20;97805.59;;;30.89;59.40
43701;BME280;58809;47.984;7.964;2023-08-21T10:23:29;97800.91;;;30.95;58.89
43701;BME280;58809;47.984;7.964;2023-08-21T10:26:31;97804.78;;;30.56;59.27
43701;BME280;58809;47.984;7.964;2023-08-21T10:29:41;97792.50;;;30.53;60.09
43701;BME280;58809;47.984;7.964;2023-08-21T10:32:50;97790.66;;;30.67;59.67
43701;BME280;58809;47.984;7.964;2023-08-21T10:35:52;97792.41;;;30.96;58.61
43701;BME280;58809;47.984;7.964;2023-08-21T10:39:00;97797.56;;;30.98;58.41
43701;BME280;58809;47.984;7.964;2023-08-21T10:45:12;97789.00;;;31.18;58.73
43701;BME280;58809;47.984;7.964;2023-08-21T10:48:14;97789.38;;;31.58;58.69
43701;BME280;58809;47.984;7.964;2023-08-21T10:51:17;97782.97;;;31.63;57.81
43701;BME280;58809;47.984;7.964;2023-08-21T10:54:18;97779.75;;;31.75;57.73
43701;BME280;58809;47.984;7.964;2023-08-21T10:57:22;97776.78;;;31.85;56.95
43701;BME280;58809;47.984;7.964;2023-08-21T11:00:24;97779.13;;;31.50;57.25
43701;BME280;58809;47.984;7.964;2023-08-21T11:03:26;97773.47;;;31.60;56.79
43701;BME280;58809;47.984;7.964;2023-08-21T11:06:28;97773.66;;;31.64;56.79
43701;BME280;58809;47.984;7.964;2023-08-21T11:09:29;97773.03;;;31.81;56.69
43701;BME280;58809;47.984;7.964;2023-08-21T11:12:31;97780.41;;;31.94;56.61
43701;BME280;58809;47.984;7.964;2023-08-21T11:15:33;97775.06;;;31.89;55.40
43701;BME280;58809;47.984;7.964;2023-08-21T11:18:36;97774.03;;;31.99;55.89
43701;BME280;58809;47.984;7.964;2023-08-21T11:21:39;97772.69;;;32.24;55.17
43701;BME280;58809;47.984;7.964;2023-08-21T11:24:45;97773.38;;;32.30;55.67
43701;BME280;58809;47.984;7.964;2023-08-21T11:27:47;97773.47;;;32.61;54.54
43701;BME280;58809;47.984;7.964;2023-08-21T11:30:49;97774.97;;;32.67;52.97
43701;BME280;58809;47.984;7.964;2023-08-21T11:33:50;97766.41;;;32.46;52.72
43701;BME280;58809;47.984;7.964;2023-08-21T11:36:52;97768.66;;;32.44;53.02
43701;BME280;58809;47.984;7.964;2023-08-21T11:39:58;97771.34;;;32.58;53.00
43701;BME280;58809;47.984;7.964;2023-08-21T11:43:00;97766.72;;;33.12;51.83
43701;BME280;58809;47.984;7.964;2023-08-21T11:46:04;97772.19;;;33.44;51.77
43701;BME280;58809;47.984;7.964;2023-08-21T11:49:06;97756.88;;;33.51;51.29
43701;BME280;58809;47.984;7.964;2023-08-21T11:52:08;97751.94;;;35.88;46.99
43701;BME280;58809;47.984;7.964;2023-08-21T11:55:10;97747.34;;;38.77;41.27
43701;BME280;58809;47.984;7.964;2023-08-21T11:58:17;97749.19;;;41.93;37.37
43701;BME280;58809;47.984;7.964;2023-08-21T12:01:20;97731.81;;;43.02;34.68
43701;BME280;58809;47.984;7.964;2023-08-21T12:04:22;97736.06;;;44.80;32.90
43701;BME280;58809;47.984;7.964;2023-08-21T12:07:24;97727.66;;;46.02;30.51
43701;BME280;58809;47.984;7.964;2023-08-21T12:10:27;97723.56;;;44.38;31.99
43701;BME280;58809;47.984;7.964;2023-08-21T12:13:30;97728.22;;;43.46;32.83
43701;BME280;58809;47.984;7.964;2023-08-21T12:16:35;97715.09;;;44.13;33.20
43701;BME280;58809;47.984;7.964;2023-08-21T12:19:36;97716.13;;;44.78;31.79
43701;BME280;58809;47.984;7.964;2023-08-21T12:22:38;97721.22;;;46.13;30.35
43701;BME280;58809;47.984;7.964;2023-08-21T12:25:41;97720.72;;;47.06;29.57
43701;BME280;58809;47.984;7.964;2023-08-21T12:28:43;97715.69;;;46.83;29.12
43701;BME280;58809;47.984;7.964;2023-08-21T12:31:44;97706.91;;;47.75;27.92
43701;BME280;58809;47.984;7.964;2023-08-21T12:34:46;97714.91;;;47.35;28.93
43701;BME280;58809;47.984;7.964;2023-08-21T12:37:48;97705.91;;;49.36;26.93
43701;BME280;58809;47.984;7.964;2023-08-21T12:40:49;97699.41;;;48.91;27.17
43701;BME280;58809;47.984;7.964;2023-08-21T12:43:51;97697.16;;;47.87;27.66
43701;BME280;58809;47.984;7.964;2023-08-21T12:46:52;97692.69;;;47.55;27.88
43701;BME280;58809;47.984;7.964;2023-08-21T12:49:54;97695.28;;;49.47;26.47
43701;BME280;58809;47.984;7.964;2023-08-21T12:52:56;97686.63;;;51.40;25.01
43701;BME280;58809;47.984;7.964;2023-08-21T12:55:57;97695.09;;;50.38;25.23
43701;BME280;58809;47.984;7.964;2023-08-21T12:58:59;97688.34;;;51.21;24.83
43701;BME280;58809;47.984;7.964;2023-08-21T13:02:02;97680.22;;;51.98;24.43
43701;BME280;58809;47.984;7.964;2023-08-21T13:05:04;97678.88;;;52.58;24.55
43701;BME280;58809;47.984;7.964;2023-08-21T13:08:08;97671.50;;;52.73;24.09
43701;BME280;58809;47.984;7.964;2023-08-21T13:11:09;97671.34;;;51.83;24.11
43701;BME280;58809;47.984;7.964;2023-08-21T13:14:11;97671.00;;;51.22;24.24
43701;BME280;58809;47.984;7.964;2023-08-21T13:17:13;97672.03;;;51.12;24.75
43701;BME280;58809;47.984;7.964;2023-08-21T13:20:14;97672.63;;;50.71;24.58
43701;BME280;58809;47.984;7.964;2023-08-21T13:23:16;97668.31;;;48.51;26.07
43701;BME280;58809;47.984;7.964;2023-08-21T13:26:18;97666.50;;;47.31;27.09
43701;BME280;58809;47.984;7.964;2023-08-21T13:29:19;97670.91;;;46.79;28.08
43701;BME280;58809;47.984;7.964;2023-08-21T13:32:21;97666.72;;;48.50;26.18
43701;BME280;58809;47.984;7.964;2023-08-21T13:35:23;97661.34;;;46.77;27.31
43701;BME280;58809;47.984;7.964;2023-08-21T13:38:24;97655.63;;;47.78;26.88
43701;BME280;58809;47.984;7.964;2023-08-21T13:41:26;97659.78;;;49.09;25.81
43701;BME280;58809;47.984;7.964;2023-08-21T13:44:28;97664.72;;;50.65;24.29
43701;BME280;58809;47.984;7.964;2023-08-21T13:47:29;97654.50;;;50.55;25.21
43701;BME280;58809;47.984;7.964;2023-08-21T13:50:31;97653.06;;;51.29;24.79
43701;BME280;58809;47.984;7.964;2023-08-21T13:53:33;97649.38;;;52.59;24.06
43701;BME280;58809;47.984;7.964;2023-08-21T13:56:34;97641.88;;;52.90;23.73
43701;BME280;58809;47.984;7.964;2023-08-21T13:59:36;97643.38;;;52.57;23.53
43701;BME280;58809;47.984;7.964;2023-08-21T14:02:38;97645.47;;;49.24;24.52
43701;BME280;58809;47.984;7.964;2023-08-21T14:05:41;97643.47;;;48.77;25.25
43701;BME280;58809;47.984;7.964;2023-08-21T14:08:43;97641.81;;;50.47;24.48
43701;BME280;58809;47.984;7.964;2023-08-21T14:11:44;97640.66;;;49.88;24.84
43701;BME280;58809;47.984;7.964;2023-08-21T14:14:46;97631.44;;;50.60;23.97
43701;BME280;58809;47.984;7.964;2023-08-21T14:17:48;97632.53;;;50.83;24.20
43701;BME280;58809;47.984;7.964;2023-08-21T14:20:51;97641.34;;;51.31;23.67
43701;BME280;58809;47.984;7.964;2023-08-21T14:23:52;97631.53;;;51.22;23.38
43701;BME280;58809;47.984;7.964;2023-08-21T14:26:54;97631.34;;;51.30;23.01
43701;BME280;58809;47.984;7.964;2023-08-21T14:29:59;97637.78;;;50.97;23.50
43701;BME280;58809;47.984;7.964;2023-08-21T14:33:00;97631.47;;;51.39;23.29
43701;BME280;58809;47.984;7.964;2023-08-21T14:36:02;97631.88;;;50.75;23.59
43701;BME280;58809;47.984;7.964;2023-08-21T14:39:04;97629.69;;;50.50;23.80
43701;BME280;58809;47.984;7.964;2023-08-21T14:42:05;97619.84;;;50.75;22.40
43701;BME280;58809;47.984;7.964;2023-08-21T14:45:07;97617.09;;;48.67;23.81
43701;BME280;58809;47.984;7.964;2023-08-21T14:48:09;97614.84;;;47.70;25.00
43701;BME280;58809;47.984;7.964;2023-08-21T14:51:11;97611.41;;;48.20;24.63
43701;BME280;58809;47.984;7.964;2023-08-21T14:54:13;97613.22;;;49.32;24.58
43701;BME280;58809;47.984;7.964;2023-08-21T14:57:14;97619.88;;;50.02;23.95
43701;BME280;58809;47.984;7.964;2023-08-21T15:00:16;97613.41;;;49.85;24.07
43701;BME280;58809;47.984;7.964;2023-08-21T15:03:20;97603.09;;;48.91;24.35
43701;BME280;58809;47.984;7.964;2023-08-21T15:06:23;97601.53;;;49.57;24.18
43701;BME280;58809;47.984;7.964;2023-08-21T15:09:24;97603.56;;;50.50;23.51
43701;BME280;58809;47.984;7.964;2023-08-21T15:12:26;97608.38;;;50.82;23.30
43701;BME280;58809;47.984;7.964;2023-08-21T15:15:28;97598.06;;;49.26;24.79
43701;BME280;58809;47.984;7.964;2023-08-21T15:18:29;97605.69;;;49.69;25.04
43701;BME280;58809;47.984;7.964;2023-08-21T15:21:31;97598.94;;;49.23;24.52
43701;BME280;58809;47.984;7.964;2023-08-21T15:24:32;97596.13;;;49.23;24.64
43701;BME280;58809;47.984;7.964;2023-08-21T15:27:34;97600.03;;;50.09;24.17
43701;BME280;58809;47.984;7.964;2023-08-21T15:30:36;97595.81;;;49.81;23.73
43701;BME280;58809;47.984;7.964;2023-08-21T15:33:38;97586.38;;;48.84;24.61
43701;BME280;58809;47.984;7.964;2023-08-21T15:36:40;97593.69;;;49.25;24.78
43701;BME280;58809;47.984;7.964;2023-08-21T15:39:42;97579.72;;;49.21;24.58
43701;BME280;58809;47.984;7.964;2023-08-21T15:42:44;97582.66;;;48.90;25.15
43701;BME280;58809;47.984;7.964;2023-08-21T15:45:46;97577.31;;;48.22;25.03
43701;BME280;58809;47.984;7.964;2023-08-21T15:48:48;97575.78;;;48.71;24.11
43701;BME280;58809;47.984;7.964;2023-08-21T15:51:50;97581.72;;;47.92;24.91
43701;BME280;58809;47.984;7.964;2023-08-21T15:54:51;97579.41;;;47.14;26.14
43701;BME280;58809;47.984;7.964;2023-08-21T15:57:53;97572.78;;;43.80;29.01
43701;BME280;58809;47.984;7.964;2023-08-21T16:00:56;97565.31;;;40.77;33.08
43701;BME280;58809;47.984;7.964;2023-08-21T16:03:58;97570.03;;;38.98;36.17